Time;durP1;ratioP1;P1;durP2;ratioP2;P2;SDS_P1;SDS_P2;PMS_P1;PMS_P2;Temp;Humidity;BMP_temperature;BMP_pressure;BME280_temperature;BME280_humidity;BME280_pressure;Samples;Min_cycle;Max_cycle;Signal;HPM_P1;HPM_P2
2022/03/10 00:00:49;;;;;;;30.20;15.50;;;;;;;-0.35;100.00;60773.94;5091903;28;20441;-74
2022/03/10 00:03:18;;;;;;;30.40;14.50;;;;;;;-0.23;100.00;60781.63;5093211;28;20817;-74
2022/03/10 00:05:48;;;;;;;29.13;14.77;;;;;;;-0.60;100.00;60744.97;5093035;28;20485;-74
2022/03/10 00:08:15;;;;;;;32.37;14.13;;;;;;;-0.10;100.00;60795.41;5093295;28;20430;-74
2022/03/10 00:10:43;;;;;;;27.37;13.63;;;;;;;-1.21;100.00;60680.94;5092929;28;20481;-76
2022/03/10 00:13:13;;;;;;;25.40;13.50;;;;;;;-0.50;100.00;60750.56;5092126;28;20495;-75
2022/03/10 00:15:40;;;;;;;25.97;13.63;;;;;;;-2.02;100.00;60598.28;5092860;28;20442;-75
2022/03/10 00:18:08;;;;;;;23.10;13.23;;;;;;;-0.54;100.00;60753.81;5092802;28;20499;-74
2022/03/10 00:20:35;;;;;;;27.03;14.20;;;;;;;-0.54;100.00;60748.81;5092633;28;20441;-74
2022/03/10 00:23:04;;;;;;;24.47;13.80;;;;;;;-0.39;100.00;60769.69;5092508;28;20449;-76
2022/03/10 00:28:18;;;;;;;24.20;14.13;;;;;;;-0.25;100.00;60779.53;5093357;28;20445;-77
2022/03/10 00:30:45;;;;;;;21.97;12.60;;;;;;;-0.18;100.00;60792.47;5092178;28;20488;-76
2022/03/10 00:33:16;;;;;;;23.53;13.37;;;;;;;-0.19;100.00;60793.38;5092399;28;21017;-74
2022/03/10 00:35:45;;;;;;;27.33;14.77;;;;;;;-0.14;100.00;60791.19;5092477;28;20437;-75
2022/03/10 00:38:16;;;;;;;26.27;14.90;;;;;;;-0.14;100.00;60791.19;5092021;28;20500;-74
2022/03/10 00:40:44;;;;;;;27.27;15.50;;;;;;;-0.36;100.00;60767.88;5092171;28;20888;-74
2022/03/10 00:43:18;;;;;;;32.77;16.30;;;;;;;-0.33;100.00;60776.06;5092292;28;20433;-74
2022/03/10 00:45:45;;;;;;;28.73;15.27;;;;;;;-0.40;100.00;60761.66;5092702;28;20932;-74
2022/03/10 00:48:12;;;;;;;29.43;16.30;;;;;;;-0.27;100.00;60777.41;5092236;28;20441;-74
2022/03/10 00:50:39;;;;;;;33.40;16.80;;;;;;;-0.23;100.00;60781.63;5092309;28;20979;-74
2022/03/10 00:53:08;;;;;;;29.40;16.17;;;;;;;-0.23;100.00;60784.16;5092430;28;20487;-78
2022/03/10 00:55:38;;;;;;;31.63;17.80;;;;;;;-0.41;100.00;60762.59;5092201;28;20430;-75
2022/03/10 00:58:07;;;;;;;33.13;16.23;;;;;;;-1.07;100.00;60698.78;5092602;28;20506;-74
2022/03/10 01:00:34;;;;;;;25.73;15.27;;;;;;;-0.30;100.00;60779.25;5091680;28;20446;-75
2022/03/10 01:03:01;;;;;;;31.43;14.97;;;;;;;-0.36;100.00;60767.88;5092199;28;20437;-73
2022/03/10 01:05:27;;;;;;;31.03;16.57;;;;;;;-1.07;100.00;60698.78;5092127;28;20460;-74
2022/03/10 01:07:55;;;;;;;27.80;14.93;;;;;;;-0.28;100.00;60781.88;5091960;28;20445;-73
2022/03/10 01:10:27;;;;;;;26.90;15.03;;;;;;;-0.29;100.00;60775.81;5091483;28;20496;-74
2022/03/10 01:12:57;;;;;;;27.63;15.37;;;;;;;-1.15;100.00;60694.78;5091767;28;20510;-74
2022/03/10 01:15:25;;;;;;;26.43;15.20;;;;;;;-0.74;100.00;60733.16;5091906;28;20479;-73
2022/03/10 01:17:53;;;;;;;25.70;14.43;;;;;;;-1.06;100.00;60699.31;5092150;28;20948;-76
2022/03/10 01:20:22;;;;;;;27.33;14.47;;;;;;;-0.76;100.00;60735.53;5092144;28;20464;-73
2022/03/10 01:22:49;;;;;;;28.77;15.07;;;;;;;-1.10;100.00;60690.06;5091974;28;20454;-73
2022/03/10 01:25:19;;;;;;;29.73;15.57;;;;;;;-0.61;100.00;60741.41;5091961;28;20524;-74
2022/03/10 01:27:46;;;;;;;26.93;14.67;;;;;;;-1.18;100.00;60679.63;5091917;28;20524;-75
2022/03/10 01:30:17;;;;;;;27.33;15.50;;;;;;;-0.54;100.00;60749.34;5091704;28;20510;-74
2022/03/10 01:32:45;;;;;;;28.50;14.90;;;;;;;-0.56;100.00;60751.72;5091831;28;20933;-74
2022/03/10 01:35:14;;;;;;;28.50;14.23;;;;;;;-0.74;100.00;60730.16;5091252;28;20453;-76
2022/03/10 01:37:41;;;;;;;25.10;13.87;;;;;;;-0.61;100.00;60743.91;5091818;28;20442;-74
2022/03/10 01:40:10;;;;;;;24.90;14.33;;;;;;;-0.49;100.00;60754.09;5091805;28;20441;-74
2022/03/10 01:42:38;;;;;;;21.93;12.43;;;;;;;-1.20;100.00;60685.03;5091824;28;20430;-74
2022/03/10 01:45:07;;;;;;;26.75;13.13;;;;;;;-0.75;100.00;60727.13;5091663;28;20495;-75
2022/03/10 01:47:39;;;;;;;23.00;13.03;;;;;;;-1.06;100.00;60699.84;5091852;28;20256;-73
2022/03/10 01:50:11;;;;;;;25.13;14.40;;;;;;;-0.74;100.00;60733.16;5091838;28;21001;-75
2022/03/10 01:52:40;;;;;;;30.10;14.77;;;;;;;-1.11;100.00;60689.56;5095198;28;20909;-75
2022/03/10 01:55:09;;;;;;;30.70;16.03;;;;;;;-0.59;100.00;60743.53;5095631;28;20631;-74
2022/03/10 01:57:39;;;;;;;26.13;15.17;;;;;;;-0.61;100.00;60746.41;5094390;28;20530;-75
2022/03/10 02:00:08;;;;;;;29.23;16.97;;;;;;;-0.68;100.00;60736.50;5096687;28;20426;-73
2022/03/10 02:02:37;;;;;;;34.83;17.07;;;;;;;-0.56;100.00;60746.72;5095969;28;20441;-74
2022/03/10 02:05:04;;;;;;;32.17;16.83;;;;;;;-0.56;100.00;60749.22;5095199;28;20494;-74
2022/03/10 02:10:19;;;;;;;29.60;15.93;;;;;;;-0.96;100.00;60709.88;5095943;28;20461;-74
2022/03/10 02:12:50;;;;;;;32.83;17.33;;;;;;;-0.57;100.00;60746.19;5095160;28;20477;-74
2022/03/10 02:18:05;;;;;;;32.77;17.03;;;;;;;-0.54;100.00;60748.81;5095169;28;20440;-75
2022/03/10 02:20:34;;;;;;;34.13;17.93;;;;;;;-1.30;100.00;60673.91;5095192;28;20437;-75
2022/03/10 02:23:04;;;;;;;33.33;17.60;;;;;;;-0.56;100.00;60751.72;5094957;28;20434;-74
2022/03/10 02:25:35;;;;;;;33.53;17.60;;;;;;;-0.68;100.00;60739.00;5095052;28;20989;-74
2022/03/10 02:28:03;;;;;;;35.67;17.20;;;;;;;-1.00;100.00;60706.19;5094942;28;20913;-74
2022/03/10 02:30:31;;;;;;;31.27;16.33;;;;;;;-0.89;100.00;60717.84;5094544;28;20457;-74
2022/03/10 02:33:00;;;;;;;29.70;15.57;;;;;;;-0.94;100.00;60707.53;5094850;28;20481;-74
2022/03/10 02:35:28;;;;;;;31.63;16.40;;;;;;;-1.12;100.00;60687.94;5094995;28;20426;-75
2022/03/10 02:37:56;;;;;;;29.73;15.43;;;;;;;-1.19;100.00;60681.09;5094656;28;20449;-74
2022/03/10 02:40:25;;;;;;;31.17;16.53;;;;;;;-1.07;100.00;60696.28;5094453;28;20586;-76
2022/03/10 02:42:53;;;;;;;33.40;17.00;;;;;;;-1.43;100.00;60653.22;5095105;28;20487;-75
2022/03/10 02:45:22;;;;;;;35.07;17.93;;;;;;;-1.22;100.00;60677.91;5094431;28;20434;-74
2022/03/10 02:47:52;;;;;;;37.90;17.13;;;;;;;-1.14;100.00;60686.38;5094639;28;20442;-75
2022/03/10 02:50:19;;;;;;;31.70;16.53;;;;;;;-1.52;100.00;60646.16;5094301;28;20944;-74
2022/03/10 02:52:46;;;;;;;32.53;16.80;;;;;;;-1.60;100.00;60637.72;5094291;28;21076;-75
2022/03/10 02:55:15;;;;;;;29.83;15.63;;;;;;;-1.22;100.00;60682.91;5093034;28;20442;-75
2022/03/10 02:57:44;;;;;;;31.77;16.43;;;;;;;-1.20;100.00;60679.50;5094300;28;20458;-74
2022/03/10 03:00:14;;;;;;;32.60;15.10;;;;;;;-1.73;100.00;60623.97;5094219;28;21000;-76
2022/03/10 03:02:41;;;;;;;34.87;15.43;;;;;;;-2.81;100.00;60515.88;5093483;28;20450;-75
2022/03/10 03:05:09;;;;;;;26.63;13.30;;;;;;;-2.01;100.00;60601.88;5094277;28;20506;-75
2022/03/10 03:07:38;;;;;;;25.27;13.13;;;;;;;-1.95;100.00;60601.22;5093908;28;20514;-75
2022/03/10 03:10:06;;;;;;;24.63;12.90;;;;;;;-1.79;100.00;60622.63;5094546;28;20822;-74
2022/03/10 03:12:35;;;;;;;30.40;13.50;;;;;;;-2.15;100.00;60582.59;5095436;28;20488;-74
2022/03/10 03:15:03;;;;;;;24.20;12.52;;;;;;;-2.86;100.00;60505.63;5094534;28;20220;-74
2022/03/10 03:17:32;;;;;;;24.17;10.77;;;;;;;-1.93;100.00;60608.34;5094151;28;20745;-74
2022/03/10 03:20:00;;;;;;;21.00;11.20;;;;;;;-1.78;100.00;60621.19;5093842;28;20467;-74
2022/03/10 03:22:27;;;;;;;20.63;10.83;;;;;;;-2.22;100.00;60572.16;5093868;28;20450;-76
2022/03/10 03:24:55;;;;;;;20.05;10.20;;;;;;;-2.37;100.00;60556.34;5093742;28;20947;-75
2022/03/10 03:27:22;;;;;;;17.42;8.68;;;;;;;-2.44;100.00;60548.94;5093299;28;20207;-74
2022/03/10 03:29:49;;;;;;;17.40;8.88;;;;;;;-2.44;100.00;60548.94;5093733;28;20199;-73
2022/03/10 03:32:18;;;;;;;16.02;7.90;;;;;;;-2.58;100.00;60539.66;5093471;28;20285;-76
2022/03/10 03:34:45;;;;;;;16.87;8.43;;;;;;;-2.78;100.00;60519.06;5093815;28;20253;-74
2022/03/10 03:37:12;;;;;;;15.23;7.97;;;;;;;-2.80;100.00;60513.94;5094105;28;20853;-74
2022/03/10 03:39:39;;;;;;;13.68;6.35;;;;;;;-2.82;100.00;60509.84;5093903;28;20199;-75
2022/03/10 03:42:06;;;;;;;10.85;5.88;;;;;;;-2.83;100.00;60508.78;5093535;28;20204;-74
2022/03/10 03:44:33;;;;;;;8.77;5.00;;;;;;;-3.14;100.00;60481.06;5093553;28;20668;-74
2022/03/10 03:47:01;;;;;;;9.35;5.32;;;;;;;-3.09;100.00;60481.34;5092991;28;20741;-73
2022/03/10 03:49:29;;;;;;;11.60;5.28;;;;;;;-3.25;100.00;60464.44;5092940;28;20204;-74
2022/03/10 03:51:56;;;;;;;9.23;5.50;;;;;;;-3.20;100.00;60469.72;5092221;28;20724;-73
2022/03/10 03:57:08;;;;;;;9.88;4.65;;;;;;;-3.38;100.00;60453.22;5093526;28;20344;-74
2022/03/10 03:59:35;;;;;;;11.13;5.50;;;;;;;-3.30;100.00;60459.19;5093291;28;20203;-76
2022/03/10 04:02:03;;;;;;;9.18;5.57;;;;;;;-3.20;100.00;60471.69;5092846;28;20214;-75
2022/03/10 04:04:33;;;;;;;8.75;5.18;;;;;;;-3.26;100.00;60463.41;5092993;28;20257;-74
2022/03/10 04:07:00;;;;;;;11.45;6.45;;;;;;;-3.33;100.00;60460.97;5091770;28;20208;-74
2022/03/10 04:09:27;;;;;;;14.25;7.65;;;;;;;-3.04;100.00;60489.13;5092901;28;20280;-77
2022/03/10 04:11:57;;;;;;;31.30;16.63;;;;;;;-3.15;100.00;60479.97;5094289;28;20231;-74
2022/03/10 04:14:24;;;;;;;66.75;26.02;;;;;;;-3.23;100.00;60466.56;5093244;28;20253;-74
2022/03/10 04:16:51;;;;;;;45.15;18.50;;;;;;;-3.78;100.00;60413.50;5092846;28;20253;-75
2022/03/10 04:19:19;;;;;;;30.75;13.35;;;;;;;-3.53;100.00;60437.38;5092778;28;20717;-73
2022/03/10 04:21:48;;;;;;;33.42;15.20;;;;;;;-3.54;100.00;60436.34;5092477;28;20253;-74
2022/03/10 04:24:15;;;;;;;27.58;13.40;;;;;;;-3.36;100.00;60457.81;5092481;28;20286;-75
2022/03/10 04:26:43;;;;;;;70.65;26.23;;;;;;;-3.44;100.00;60446.91;5093028;28;20245;-76
2022/03/10 04:29:11;;;;;;;105.90;38.00;;;;;;;-3.59;100.00;60428.56;5092802;28;20257;-74
2022/03/10 04:31:38;;;;;;;77.25;30.05;;;;;;;-3.63;100.00;60429.31;5092481;28;20760;-74
2022/03/10 04:34:06;;;;;;;65.93;26.98;;;;;;;-3.53;100.00;60440.41;5092525;28;20249;-77
2022/03/10 04:36:33;;;;;;;39.63;17.52;;;;;;;-3.66;100.00;60421.19;5092547;28;20299;-75
2022/03/10 04:39:14;;;;;;;28.33;12.45;;;;;;;-3.70;100.00;60421.94;5092386;28;20196;-75
2022/03/10 04:41:42;;;;;;;27.50;12.60;;;;;;;-3.86;100.00;60410.03;5092642;28;20215;-74
2022/03/10 04:44:10;;;;;;;17.13;9.88;;;;;;;-3.31;100.00;60460.06;5092178;28;20196;-75
2022/03/10 04:46:38;;;;;;;22.75;11.82;;;;;;;-4.21;100.00;60368.69;5092526;28;20249;-75
2022/03/10 04:49:08;;;;;;;23.92;12.48;;;;;;;-3.35;100.00;60453.88;5092375;28;20261;-74
2022/03/10 04:51:35;;;;;;;32.90;16.25;;;;;;;-3.71;100.00;60418.41;5092224;28;20204;-75
2022/03/10 04:54:06;;;;;;;29.20;14.45;;;;;;;-3.46;100.00;60442.28;5092735;28;20203;-74
2022/03/10 04:56:36;;;;;;;32.55;14.13;;;;;;;-3.36;100.00;60455.34;5092197;28;20199;-76
2022/03/10 04:59:03;;;;;;;30.02;13.63;;;;;;;-3.40;100.00;60453.06;5092187;28;20256;-76
2022/03/10 05:01:31;;;;;;;31.70;14.82;;;;;;;-3.34;100.00;60454.41;5091875;28;20203;-74
2022/03/10 05:03:59;;;;;;;31.30;14.38;;;;;;;-3.61;100.00;60426.44;5092562;28;20201;-74
2022/03/10 05:06:30;;;;;;;29.67;14.27;;;;;;;-3.92;100.00;60393.75;5092326;28;20260;-73
2022/03/10 05:08:57;;;;;;;23.17;11.20;;;;;;;-3.19;100.00;60473.28;5092601;28;20253;-75
2022/03/10 05:11:25;;;;;;;22.10;11.25;;;;;;;-3.07;100.00;60483.44;5090884;28;20235;-74
2022/03/10 05:13:52;;;;;;;26.50;12.35;;;;;;;-3.73;100.00;60423.75;5091843;28;20284;-72
2022/03/10 05:16:22;;;;;;;29.15;14.23;;;;;;;-2.96;100.00;60500.06;5092032;28;20804;-75
2022/03/10 05:18:49;;;;;;;29.15;13.27;;;;;;;-2.77;100.00;60520.09;5092521;28;20275;-75
2022/03/10 05:21:18;;;;;;;31.73;15.63;;;;;;;-2.80;100.00;60513.94;5092298;28;20588;-74
2022/03/10 05:23:45;;;;;;;37.45;17.83;;;;;;;-2.65;100.00;60527.81;5090814;28;20282;-76
2022/03/10 05:26:12;;;;;;;51.78;24.23;;;;;;;-2.88;100.00;60511.00;5093134;28;20203;-75
2022/03/10 05:28:45;;;;;;;39.30;17.27;;;;;;;-2.10;100.00;60584.84;5095143;28;20225;-75
2022/03/10 05:31:12;;;;;;;32.97;15.03;;;;;;;-2.02;100.00;60593.84;5096576;28;20196;-75
2022/03/10 05:33:43;;;;;;;32.55;16.17;;;;;;;-1.72;100.00;60627.53;5095354;28;20485;-72
2022/03/10 05:36:10;;;;;;;30.13;15.53;;;;;;;-1.76;100.00;60620.78;5096445;28;20252;-76
2022/03/10 05:38:39;;;;;;;32.53;14.90;;;;;;;-1.72;100.00;60630.03;5095643;28;20489;-74
2022/03/10 05:41:06;;;;;;;44.17;17.23;;;;;;;-1.51;100.00;60646.72;5095796;28;20279;-77
2022/03/10 05:43:34;;;;;;;51.60;17.53;;;;;;;-0.86;100.00;60716.00;5094759;28;20441;-77
2022/03/10 05:46:04;;;;;;;22.27;9.57;;;;;;;-0.37;100.00;60769.84;5095423;28;20471;-77
2022/03/10 05:48:33;;;;;;;40.73;14.20;;;;;;;-0.38;100.00;60765.75;5094562;28;20437;-74
2022/03/10 05:51:01;;;;;;;25.13;10.53;;;;;;;-0.48;100.00;60760.19;5095928;28;20441;-75
2022/03/10 05:53:30;;;;;;;23.00;10.53;;;;;;;-0.79;100.00;60724.84;5095608;28;20512;-74
2022/03/10 05:55:57;;;;;;;19.50;9.63;;;;;;;-0.97;100.00;60709.38;5095484;28;20966;-75
2022/03/10 05:58:24;;;;;;;20.53;10.40;;;;;;;-0.95;100.00;60706.50;5095314;28;20453;-75
2022/03/10 06:01:00;;;;;;;16.93;8.63;;;;;;;-0.99;100.00;60701.72;5094961;28;20442;-75
2022/03/10 06:03:44;;;;;;;21.30;10.37;;;;;;;-0.93;100.00;60713.06;5096022;28;20969;-75
2022/03/10 06:06:13;;;;;;;21.10;10.60;;;;;;;-1.51;100.00;60657.22;5095520;28;20448;-76
2022/03/10 06:11:30;;;;;;;19.57;9.60;;;;;;;-0.83;100.00;60718.13;5094634;28;20848;-75
2022/03/10 06:13:57;;;;;;;34.87;15.67;;;;;;;-0.26;100.00;60783.47;5093974;28;20563;-74
2022/03/10 06:16:26;;;;;;;55.83;24.87;;;;;;;0.07;100.00;60813.41;5095205;28;20514;-74
2022/03/10 06:18:57;;;;;;;34.97;15.60;;;;;;;0.35;100.00;60845.59;5095197;28;20532;-73
2022/03/10 06:21:24;;;;;;;32.80;17.80;;;;;;;0.91;100.00;60906.41;5095962;28;20561;-75
2022/03/10 06:23:51;;;;;;;20.10;11.40;;;;;;;0.77;100.00;60884.56;5096027;28;20433;-74
2022/03/10 06:26:18;;;;;;;13.80;7.97;;;;;;;1.07;100.00;60918.88;5098754;28;20798;-74
2022/03/10 06:28:47;;;;;;;7.27;4.30;;;;;;;1.77;100.00;60997.13;5097936;28;20446;-73
2022/03/10 06:31:15;;;;;;;8.60;5.10;;;;;;;1.54;100.00;60973.78;5094813;28;20902;-74
2022/03/10 06:33:43;;;;;;;14.23;7.87;;;;;;;1.89;100.00;61004.84;5094422;28;20521;-74
2022/03/10 06:36:12;;;;;;;28.67;14.20;;;;;;;1.87;100.00;61003.25;5094552;28;20502;-72
2022/03/10 06:38:41;;;;;;;24.13;12.97;;;;;;;1.77;100.00;60992.63;5092355;28;20511;-75
2022/03/10 06:41:12;;;;;;;9.47;5.83;;;;;;;2.09;100.00;61031.63;5094415;28;20476;-74
2022/03/10 06:43:39;;;;;;;10.63;5.80;;;;;;;1.82;100.00;60997.41;5094404;28;20480;-73
2022/03/10 06:46:07;;;;;;;14.37;7.20;;;;;;;1.63;100.00;60980.28;5093971;28;20796;-72
2022/03/10 06:48:34;;;;;;;5.47;2.87;;;;;;;1.48;100.00;60962.38;5093268;28;20478;-74
2022/03/10 06:51:04;;;;;;;7.50;4.50;;;;;;;2.12;100.00;61029.25;5094451;28;20483;-75
2022/03/10 06:53:33;;;;;;;9.63;4.90;;;;;;;1.30;100.00;60947.78;5094578;28;20469;-74
2022/03/10 06:56:00;;;;;;;9.83;5.20;;;;;;;2.40;100.00;61064.53;5094795;28;20487;-74
2022/03/10 06:58:44;;;;;;;10.80;6.00;;;;;;;2.41;100.00;61060.59;5094665;28;20514;-74
2022/03/10 07:01:11;;;;;;;13.73;6.37;;;;;;;1.83;100.00;60991.47;5094319;28;20527;-74
2022/03/10 07:03:39;;;;;;;9.03;4.87;;;;;;;2.42;100.00;61066.13;5092931;28;20456;-74
2022/03/10 07:06:06;;;;;;;10.30;5.30;;;;;;;2.38;100.00;61057.41;5093229;28;20449;-76
2022/03/10 07:08:37;;;;;;;11.10;5.70;;;;;;;2.75;100.00;61100.66;5094654;28;20508;-77
2022/03/10 07:11:04;;;;;;;8.57;5.13;;;;;;;2.37;100.00;61058.84;5093932;28;20473;-74
2022/03/10 07:13:34;;;;;;;9.43;5.37;;;;;;;2.32;100.00;61051.03;5093662;28;20489;-74
2022/03/10 07:16:02;;;;;;;15.03;7.13;;;;;;;2.79;100.00;61100.44;5094175;28;20530;-76
2022/03/10 07:18:29;;;;;;;14.90;6.67;;;;;;;3.01;100.00;61123.28;5093981;28;21060;-74
2022/03/10 07:20:56;;;;;;;9.17;5.17;;;;;;;3.07;100.00;61130.19;5093996;28;20438;-75
2022/03/10 07:23:23;;;;;;;8.33;5.20;;;;;;;3.25;100.00;61148.78;5094027;28;20488;-76
2022/03/10 07:25:52;;;;;;;6.07;4.13;;;;;;;3.24;100.00;61150.25;5094107;28;20444;-75
2022/03/10 07:28:19;;;;;;;8.00;4.50;;;;;;;2.39;100.00;61058.47;5093839;28;20499;-75
2022/03/10 07:30:46;;;;;;;8.40;4.37;;;;;;;3.52;100.00;61182.53;5093641;28;20790;-75
2022/03/10 07:33:13;;;;;;;6.27;4.10;;;;;;;3.82;100.00;61209.41;5093860;28;20929;-75
2022/03/10 07:35:40;;;;;;;8.97;4.63;;;;;;;3.60;100.00;61196.06;5093478;28;20442;-74
2022/03/10 07:38:07;;;;;;;6.97;4.00;;;;;;;1.59;100.00;60973.53;5094213;28;20503;-73
2022/03/10 07:40:35;;;;;;;5.27;3.77;;;;;;;3.11;100.00;61133.91;5093359;28;20471;-75
2022/03/10 07:43:05;;;;;;;9.87;4.90;;;;;;;3.40;100.00;61165.25;5092070;28;20835;-76
2022/03/10 07:45:33;;;;;;;34.77;20.20;;;;;;;3.04;100.00;61126.97;5093570;28;20438;-75
2022/03/10 07:48:00;;;;;;;7.70;4.17;;;;;;;2.34;100.00;61055.66;5092104;28;20446;-76
2022/03/10 07:50:28;;;;;;;8.13;4.77;;;;;;;4.03;100.00;61228.69;5093573;28;20438;-75
2022/03/10 07:52:55;;;;;;;6.33;3.70;;;;;;;3.59;100.00;61184.94;5093210;28;20841;-78
2022/03/10 07:55:23;;;;;;;6.17;3.67;;;;;;;4.21;100.00;61253.41;5093287;28;20449;-75
2022/03/10 07:57:50;;;;;;;7.20;3.97;;;;;;;3.83;100.00;61210.47;5093131;28;20832;-77
2022/03/10 08:00:19;;;;;;;7.67;4.60;;;;;;;3.06;100.00;61128.59;5092924;28;20503;-75
2022/03/10 08:02:47;;;;;;;16.27;6.97;;;;;;;2.87;100.00;61108.38;5091745;28;20494;-74
2022/03/10 08:05:15;;;;;;;5.73;3.40;;;;;;;2.22;100.00;61040.41;5092726;28;20442;-75
2022/03/10 08:07:47;;;;;;;7.50;4.00;;;;;;;1.79;100.00;61004.81;5092814;28;20509;-75
2022/03/10 08:10:17;;;;;;;6.30;3.60;;;;;;;2.40;100.00;61058.97;5093657;28;20473;-75
2022/03/10 08:12:45;;;;;;;5.27;3.10;;;;;;;2.35;100.00;61059.25;5092818;28;20474;-73
2022/03/10 08:15:15;;;;;;;7.27;3.07;;;;;;;2.08;100.00;61028.06;5093014;28;20441;-75
2022/03/10 08:17:45;;;;;;;6.83;4.17;;;;;;;1.77;100.00;60997.66;5093872;28;20580;-74
2022/03/10 08:20:14;;;;;;;6.83;4.30;;;;;;;1.22;100.00;60934.81;5092730;28;20422;-74
2022/03/10 08:22:41;;;;;;;8.10;4.63;;;;;;;1.50;100.00;60963.97;5092665;28;20507;-76
2022/03/10 08:25:11;;;;;;;7.03;4.00;;;;;;;1.51;100.00;60962.53;5093145;28;20438;-75
2022/03/10 08:27:40;;;;;;;11.23;4.83;;;;;;;1.39;100.00;60952.31;5093213;28;20880;-76
2022/03/10 08:30:13;;;;;;;5.83;3.83;;;;;;;0.67;100.00;60877.00;5092333;28;21013;-75
2022/03/10 08:32:40;;;;;;;6.83;3.80;;;;;;;0.61;100.00;60875.66;5092506;28;20491;-74
2022/03/10 08:35:09;;;;;;;5.70;3.30;;;;;;;0.75;100.00;60890.50;5092569;28;20433;-75
2022/03/10 08:37:36;;;;;;;5.73;2.53;;;;;;;-0.15;100.00;60790.66;5094302;28;20859;-75
2022/03/10 08:40:04;;;;;;;6.37;3.53;;;;;;;0.39;100.00;60849.84;5092799;28;20450;-76
2022/03/10 08:42:31;;;;;;;8.77;3.90;;;;;;;0.55;100.00;60869.28;5092658;28;20507;-77
2022/03/10 08:44:58;;;;;;;10.13;3.77;;;;;;;0.98;100.00;60909.34;5092442;28;20491;-73
2022/03/10 08:47:28;;;;;;;5.30;2.87;;;;;;;1.17;100.00;60934.50;5092242;28;20445;-74
2022/03/10 08:49:55;;;;;;;5.30;2.87;;;;;;;1.99;100.00;61016.00;5093092;28;20443;-75
2022/03/10 08:52:23;;;;;;;4.07;2.57;;;;;;;1.84;100.00;61004.53;5092521;28;20438;-74
2022/03/10 08:54:52;;;;;;;7.57;3.93;;;;;;;2.20;100.00;61038.28;5091328;28;20478;-74
2022/03/10 08:57:19;;;;;;;7.40;4.17;;;;;;;2.09;100.00;61029.13;5091834;28;20457;-73
2022/03/10 08:59:47;;;;;;;5.27;2.83;;;;;;;2.39;100.00;61053.44;5091754;28;20939;-76
2022/03/10 09:02:16;;;;;;;14.33;4.97;;;;;;;2.10;100.00;61027.13;5092134;28;20507;-77
2022/03/10 09:04:43;;;;;;;7.20;4.23;;;;;;;3.32;100.00;61156.22;5092218;28;20430;-74
2022/03/10 09:07:11;;;;;;;8.60;3.67;;;;;;;3.12;100.00;61134.97;5092290;28;20500;-75
2022/03/10 09:09:40;;;;;;;5.80;3.70;;;;;;;2.82;100.00;61103.09;5091185;28;20517;-74
2022/03/10 09:12:08;;;;;;;6.17;3.23;;;;;;;2.38;100.00;61057.41;5092118;28;20503;-76
2022/03/10 09:14:39;;;;;;;13.10;5.13;;;;;;;1.83;100.00;60999.00;5092332;28;20482;-77
2022/03/10 09:17:08;;;;;;;27.10;8.97;;;;;;;1.45;100.00;60961.19;5092294;28;20446;-76
2022/03/10 09:19:35;;;;;;;38.90;12.63;;;;;;;0.81;100.00;60896.84;5091955;28;20445;-73
2022/03/10 09:22:07;;;;;;;5.80;3.00;;;;;;;1.37;100.00;60950.19;5091852;28;20520;-76
2022/03/10 09:24:34;;;;;;;4.87;2.87;;;;;;;1.20;100.00;60932.16;5092300;28;20445;-74
2022/03/10 09:27:07;;;;;;;17.53;7.80;;;;;;;1.32;100.00;60949.91;5091947;28;20491;-76
2022/03/10 09:29:35;;;;;;;13.97;6.97;;;;;;;1.16;100.00;60932.91;5091082;28;20550;-75
2022/03/10 09:32:07;;;;;;;14.10;6.80;;;;;;;0.75;100.00;60884.94;5091756;28;20884;-74
2022/03/10 09:34:34;;;;;;;4.40;2.93;;;;;;;1.52;100.00;60961.06;5091782;28;20535;-74
2022/03/10 09:37:06;;;;;;;6.90;2.97;;;;;;;0.76;100.00;60886.03;5091648;28;20468;-74
2022/03/10 09:39:36;;;;;;;7.47;2.93;;;;;;;1.12;100.00;60926.16;5091820;28;21005;-76
2022/03/10 09:42:06;;;;;;;5.47;3.17;;;;;;;1.37;100.00;60952.69;5091747;28;20916;-75
2022/03/10 09:44:40;;;;;;;6.37;2.80;;;;;;;1.33;100.00;60948.47;5091534;28;20442;-75
2022/03/10 09:47:08;;;;;;;22.10;4.50;;;;;;;1.01;100.00;60917.03;5091875;28;20984;-75
2022/03/10 09:49:40;;;;;;;7.50;3.00;;;;;;;1.18;100.00;60930.56;5091453;28;20442;-75
2022/03/10 09:52:11;;;;;;;7.63;3.27;;;;;;;0.94;100.00;60902.06;5091546;28;20441;-77
2022/03/10 09:54:38;;;;;;;7.03;2.80;;;;;;;1.46;100.00;60959.72;5091352;28;20581;-76
2022/03/10 09:57:09;;;;;;;3.60;2.40;;;;;;;1.34;100.00;60947.00;5091503;28;20461;-74
2022/03/10 09:59:50;;;;;;;4.90;2.53;;;;;;;1.97;100.00;61013.88;5091231;28;20430;-75
2022/03/10 10:02:22;;;;;;;4.30;2.70;;;;;;;2.01;100.00;61018.13;5091193;28;20557;-75
2022/03/10 10:04:51;;;;;;;6.23;2.60;;;;;;;2.17;100.00;61035.09;5091264;28;20457;-79
2022/03/10 10:07:25;;;;;;;9.00;3.43;;;;;;;2.01;100.00;61017.59;5091649;28;20473;-74
2022/03/10 10:09:56;;;;;;;8.37;3.27;;;;;;;2.01;100.00;61017.59;5092277;28;20505;-76
2022/03/10 10:12:28;;;;;;;5.93;2.97;;;;;;;1.79;100.00;60992.25;5093360;28;20477;-75
2022/03/10 10:14:58;;;;;;;7.63;3.73;;;;;;;1.94;100.00;61010.13;5094290;28;20528;-73
2022/03/10 10:17:30;;;;;;;30.63;10.07;;;;;;;1.81;100.00;61001.91;5094946;28;20882;-76
2022/03/10 10:19:59;;;;;;;12.77;4.80;;;;;;;1.65;100.00;60984.94;5095240;28;20948;-75
2022/03/10 10:22:29;;;;;;;7.53;3.67;;;;;;;1.62;100.00;60976.72;5094632;28;20456;-75
2022/03/10 10:24:59;;;;;;;4.83;2.67;;;;;;;0.98;100.00;60903.81;5095315;28;20572;-76
2022/03/10 10:27:32;;;;;;;8.60;2.90;;;;;;;1.69;100.00;60984.16;5095253;28;20446;-74
2022/03/10 10:30:00;;;;;;;4.40;2.70;;;;;;;1.47;100.00;60963.81;5094956;28;20502;-74
2022/03/10 10:32:42;;;;;;;5.10;2.70;;;;;;;1.22;100.00;60934.28;5094823;28;20521;-76
2022/03/10 10:35:20;;;;;;;8.40;3.23;;;;;;;1.07;100.00;60918.88;5094840;28;20488;-75
2022/03/10 10:37:49;;;;;;;5.40;2.93;;;;;;;0.93;100.00;60906.03;5095037;28;20435;-75
2022/03/10 10:40:21;;;;;;;10.47;2.87;;;;;;;1.01;100.00;60912.53;5094732;28;20469;-75
2022/03/10 10:42:52;;;;;;;6.33;3.07;;;;;;;0.00;100.00;60811.03;5094447;28;20465;-75
2022/03/10 10:45:32;;;;;;;4.00;2.50;;;;;;;0.91;100.00;60906.41;5095444;28;20436;-76
2022/03/10 10:48:02;;;;;;;6.37;2.87;;;;;;;1.27;100.00;60944.59;5095169;28;20434;-73
2022/03/10 10:50:35;;;;;;;4.00;2.80;;;;;;;1.39;100.00;60954.81;5099859;28;20434;-75
2022/03/10 10:53:03;;;;;;;4.40;2.80;;;;;;;1.18;100.00;60932.53;5095056;28;20446;-75
2022/03/10 10:55:34;;;;;;;6.53;3.30;;;;;;;1.50;100.00;60958.97;5094675;28;20484;-75
2022/03/10 10:58:08;;;;;;;11.90;2.60;;;;;;;0.82;100.00;60900.44;5093351;28;20527;-76
2022/03/10 11:00:44;;;;;;;3.87;2.50;;;;;;;1.18;100.00;60930.03;5094290;28;20438;-75
2022/03/10 11:03:24;;;;;;;17.90;5.50;;;;;;;1.15;100.00;60931.88;5094966;28;20433;-76
2022/03/10 11:05:53;;;;;;;20.87;6.80;;;;;;;1.15;100.00;60926.84;5094387;28;20503;-74
2022/03/10 11:08:22;;;;;;;13.97;4.47;;;;;;;0.33;100.00;60840.97;5094232;28;20438;-76
2022/03/10 11:10:52;;;;;;;3.60;2.60;;;;;;;0.94;100.00;60909.59;5093611;28;20488;-74
2022/03/10 11:13:28;;;;;;;6.37;3.20;;;;;;;1.46;100.00;60957.75;5093303;28;20496;-76
2022/03/10 11:15:59;;;;;;;8.67;4.17;;;;;;;1.53;100.00;60967.16;5094283;28;20440;-74
2022/03/10 11:18:27;;;;;;;4.60;2.83;;;;;;;1.62;100.00;60979.22;5094224;28;20430;-75
2022/03/10 11:21:05;;;;;;;7.77;3.43;;;;;;;1.95;100.00;61013.72;5093943;28;20451;-75
2022/03/10 11:23:50;;;;;;;7.10;3.43;;;;;;;2.06;100.00;61025.38;5093719;28;20449;-75
2022/03/10 11:26:22;;;;;;;3.23;2.30;;;;;;;2.17;100.00;61034.56;5093929;28;20532;-76
2022/03/10 11:28:54;;;;;;;4.20;2.50;;;;;;;1.31;100.00;60943.81;5094177;28;20438;-77
2022/03/10 11:31:23;;;;;;;4.30;2.30;;;;;;;3.10;100.00;61135.34;5094044;28;20441;-76
2022/03/10 11:33:51;;;;;;;8.47;3.70;;;;;;;3.57;100.00;61172.72;5093334;28;20465;-76
2022/03/10 11:36:24;;;;;;;8.13;3.40;;;;;;;3.41;100.00;61153.75;5092994;28;20446;-77
2022/03/10 11:38:57;;;;;;;4.60;2.70;;;;;;;2.99;100.00;61126.16;5093497;28;20524;-74
2022/03/10 11:41:30;;;;;;;4.00;2.50;;;;;;;2.41;100.00;61060.59;5093671;28;20449;-76